createdAt,value
2022-11-29T00:01:27.123Z,0.50
2022-11-29T00:03:54.185Z,0.50
2022-11-29T00:06:22.519Z,0.51
2022-11-29T00:08:49.504Z,0.51
2022-11-29T00:11:36.464Z,0.51
2022-11-29T00:14:03.192Z,0.50
2022-11-29T00:16:29.954Z,0.49
2022-11-29T00:18:56.664Z,0.51
2022-11-29T00:21:23.363Z,0.50
2022-11-29T00:23:50.150Z,0.49
2022-11-29T00:26:16.845Z,0.49
2022-11-29T00:28:43.627Z,0.49
2022-11-29T00:31:21.546Z,0.48
2022-11-29T00:33:48.521Z,0.46
2022-11-29T00:36:15.462Z,0.45
2022-11-29T00:38:42.101Z,0.44
2022-11-29T00:41:09.182Z,0.44
2022-11-29T00:43:35.980Z,0.42
2022-11-29T00:46:02.957Z,0.40
2022-11-29T00:48:29.813Z,0.38
2022-11-29T00:50:56.457Z,0.35
2022-11-29T00:53:23.241Z,0.32
2022-11-29T00:55:50.823Z,0.31
2022-11-29T00:58:18.374Z,0.32
2022-11-29T01:00:45.234Z,0.31
2022-11-29T01:03:11.803Z,0.30
2022-11-29T01:05:38.555Z,0.29
2022-11-29T01:08:05.555Z,0.27
2022-11-29T01:10:32.509Z,0.25
2022-11-29T01:12:59.266Z,0.26
2022-11-29T01:15:27.896Z,0.27
2022-11-29T01:17:54.705Z,0.27
2022-11-29T01:20:21.351Z,0.27
2022-11-29T01:22:48.087Z,0.25
2022-11-29T01:25:14.971Z,0.24
2022-11-29T01:27:41.668Z,0.23
2022-11-29T01:30:09.537Z,0.23
2022-11-29T01:32:36.534Z,0.21
2022-11-29T01:35:04.345Z,0.19
2022-11-29T01:37:31.080Z,0.20
2022-11-29T01:39:57.794Z,0.20
2022-11-29T01:42:24.672Z,0.19
2022-11-29T01:45:21.013Z,0.21
2022-11-29T01:47:47.961Z,0.21
2022-11-29T01:50:14.703Z,0.21
2022-11-29T01:52:41.463Z,0.22
2022-11-29T01:55:10.036Z,0.22
2022-11-29T01:57:37.191Z,0.21
2022-11-29T02:00:12.014Z,0.20
2022-11-29T02:02:59.321Z,0.19
2022-11-29T02:05:26.079Z,0.18
2022-11-29T02:07:54.210Z,0.17
2022-11-29T02:10:24.522Z,0.17
2022-11-29T02:13:12.491Z,0.17
2022-11-29T02:15:48.569Z,0.17
2022-11-29T02:18:27.281Z,0.18
2022-11-29T02:21:09.121Z,0.18
2022-11-29T02:24:07.459Z,0.17
2022-11-29T02:26:56.419Z,0.15
2022-11-29T02:29:44.883Z,0.10
2022-11-29T02:32:49.146Z,0.07
2022-11-29T02:35:34.308Z,0.05
2022-11-29T02:38:38.561Z,0.04
2022-11-29T02:41:43.116Z,0.04
2022-11-29T02:44:28.410Z,0.04
2022-11-29T02:47:04.596Z,0.04
2022-11-29T02:49:50.624Z,0.03
2022-11-29T02:52:21.085Z,-0.00
2022-11-29T02:55:15.243Z,-0.03
2022-11-29T02:58:19.549Z,-0.07
2022-11-29T03:01:17.338Z,-0.09
2022-11-29T03:03:59.440Z,-0.10
2022-11-29T03:06:38.898Z,-0.10
2022-11-29T03:09:30.014Z,-0.12
2022-11-29T03:12:14.977Z,-0.10
2022-11-29T03:14:54.612Z,-0.12
2022-11-29T03:17:30.234Z,-0.14
2022-11-29T03:20:20.202Z,-0.13
2022-11-29T03:23:08.979Z,-0.15
2022-11-29T03:25:39.449Z,-0.16
2022-11-29T03:28:27.917Z,-0.18
2022-11-29T03:30:57.336Z,-0.20
2022-11-29T03:33:57.295Z,-0.22
2022-11-29T03:36:26.968Z,-0.22
2022-11-29T03:38:55.429Z,-0.22
2022-11-29T03:41:27.548Z,-0.24
2022-11-29T03:44:09.777Z,-0.24
2022-11-29T03:46:37.651Z,-0.21
2022-11-29T03:49:09.740Z,-0.19
2022-11-29T03:51:52.675Z,-0.18
2022-11-29T03:54:24.460Z,-0.20
2022-11-29T03:56:51.467Z,-0.20
2022-11-29T03:59:34.338Z,-0.20
2022-11-29T04:02:22.727Z,-0.21
2022-11-29T04:05:11.908Z,-0.25
2022-11-29T04:08:16.439Z,-0.25
2022-11-29T04:11:12.334Z,-0.26
2022-11-29T04:14:17.725Z,-0.28
2022-11-29T04:17:05.144Z,-0.31
2022-11-29T04:20:09.555Z,-0.33
2022-11-29T04:23:06.797Z,-0.37
2022-11-29T04:26:00.836Z,-0.40
2022-11-29T04:28:50.783Z,-0.41
2022-11-29T04:31:23.090Z,-0.39
2022-11-29T04:33:58.743Z,-0.40
2022-11-29T04:36:40.509Z,-0.40
2022-11-29T04:39:17.328Z,-0.39
2022-11-29T04:42:02.211Z,-0.36
2022-11-29T04:44:44.229Z,-0.35
2022-11-29T04:47:29.321Z,-0.34
2022-11-29T04:50:31.427Z,-0.33
2022-11-29T04:53:04.095Z,-0.31
2022-11-29T04:56:06.868Z,-0.30
2022-11-29T04:58:52.001Z,-0.28
2022-11-29T05:01:31.294Z,-0.28
2022-11-29T05:04:27.681Z,-0.29
2022-11-29T05:07:08.164Z,-0.30
2022-11-29T05:09:51.181Z,-0.32
2022-11-29T08:08:51.924Z,-0.70
2022-11-29T08:11:18.773Z,-0.57
2022-11-29T08:13:46.401Z,-0.53
2022-11-29T08:16:18.086Z,-0.50
2022-11-29T08:18:45.041Z,-0.48
2022-11-29T08:21:11.768Z,-0.46
2022-11-29T08:23:38.520Z,-0.44
2022-11-29T08:26:05.450Z,-0.44
2022-11-29T08:28:32.423Z,-0.54
2022-11-29T08:31:05.247Z,-0.50
2022-11-29T08:33:32.414Z,-0.53
2022-11-29T08:39:27.666Z,-0.55
2022-11-29T08:41:54.442Z,-0.55
2022-11-29T08:44:21.373Z,-0.55
2022-11-29T08:47:06.972Z,-0.55
2022-11-29T08:49:35.818Z,-0.56
2022-11-29T08:52:24.562Z,-0.58
2022-11-29T08:55:02.901Z,-0.58
2022-11-29T08:57:41.230Z,-0.57
2022-11-29T09:00:08.973Z,-0.58
2022-11-29T09:02:38.866Z,-0.57
2022-11-29T09:05:09.901Z,-0.57
2022-11-29T09:07:39.724Z,-0.57
2022-11-29T09:10:08.363Z,-0.56
2022-11-29T09:12:36.086Z,-0.57
2022-11-29T09:15:07.160Z,-0.57
2022-11-29T09:17:34.189Z,-0.58
2022-11-29T09:20:01.007Z,-0.60
2022-11-29T09:22:30.785Z,-0.60
2022-11-29T09:24:57.633Z,-0.60
2022-11-29T09:27:24.403Z,-0.59
2022-11-29T09:29:52.948Z,-0.58
2022-11-29T09:32:19.783Z,-0.59
2022-11-29T09:34:47.581Z,-0.74
2022-11-29T09:37:14.702Z,-0.74
2022-11-29T09:39:46.040Z,-0.60
2022-11-29T09:42:39.855Z,-0.61
2022-11-29T09:45:09.734Z,-0.61
2022-11-29T09:47:59.043Z,-0.62
2022-11-29T09:50:28.149Z,-0.61
2022-11-29T09:53:24.190Z,-0.60
2022-11-29T09:56:01.126Z,-0.58
2022-11-29T09:58:33.911Z,-0.56
2022-11-29T10:01:03.082Z,-0.55
2022-11-29T10:03:39.447Z,-0.54
2022-11-29T10:06:41.121Z,-0.54
2022-11-29T10:09:30.838Z,-0.51
2022-11-29T10:12:11.004Z,-0.53
2022-11-29T10:14:48.853Z,-0.48
2022-11-29T10:17:36.627Z,-0.45
2022-11-29T10:20:25.275Z,-0.44
2022-11-29T10:22:56.117Z,-0.44
2022-11-29T10:25:26.722Z,-0.44
2022-11-29T10:27:54.671Z,-0.43
2022-11-29T10:30:21.699Z,-0.42
2022-11-29T10:32:55.451Z,-0.41
2022-11-29T10:35:22.840Z,-0.42
2022-11-29T10:38:14.529Z,-0.40
2022-11-29T10:40:40.201Z,-0.40
2022-11-29T10:43:07.984Z,-0.40
2022-11-29T10:45:50.028Z,-0.41
2022-11-29T10:48:20.598Z,-0.52
2022-11-29T10:50:56.168Z,-0.41
2022-11-29T10:53:28.333Z,-0.41
2022-11-29T10:55:59.151Z,-0.41
2022-11-29T10:58:28.576Z,-0.42
2022-11-29T11:06:21.179Z,-0.47
2022-11-29T11:09:15.233Z,-0.48
2022-11-29T11:11:45.255Z,-0.47
2022-11-29T11:14:26.134Z,-0.45
2022-11-29T11:16:53.992Z,-0.42
2022-11-29T11:19:32.466Z,-0.41
2022-11-29T11:22:03.823Z,-0.40
2022-11-29T11:24:36.219Z,-0.40
2022-11-29T11:27:06.788Z,-0.38
2022-11-29T11:29:54.477Z,-0.52
2022-11-29T11:32:45.139Z,-0.66
2022-11-29T11:35:23.439Z,-0.42
2022-11-29T11:37:56.733Z,-0.45
2022-11-29T11:40:29.197Z,-0.47
2022-11-29T11:43:00.636Z,-0.49
2022-11-29T11:45:31.171Z,-0.65
2022-11-29T11:48:01.655Z,-0.57
2022-11-29T11:50:42.709Z,-0.55
2022-11-29T11:53:36.555Z,-0.57
2022-11-29T11:56:08.212Z,-0.59
2022-11-29T11:58:37.061Z,-0.60
2022-11-29T12:01:13.307Z,-0.61
2022-11-29T12:04:14.914Z,-0.61
2022-11-29T12:07:01.012Z,-0.60
2022-11-29T12:09:40.496Z,-0.60
2022-11-29T12:12:16.424Z,-0.64
2022-11-29T12:14:55.466Z,-0.66
2022-11-29T12:17:35.322Z,-0.68
2022-11-29T12:20:24.781Z,-0.70
2022-11-29T12:23:13.004Z,-0.70
2022-11-29T12:25:45.711Z,-0.69
2022-11-29T12:28:17.172Z,-0.68
2022-11-29T12:31:03.489Z,-0.68
2022-11-29T12:33:37.039Z,-0.68
2022-11-29T12:36:13.236Z,-0.70
2022-11-29T12:38:49.016Z,-0.71
2022-11-29T12:41:25.464Z,-0.72
2022-11-29T12:44:10.781Z,-0.74
2022-11-29T12:46:38.597Z,-0.69
2022-11-29T12:49:40.811Z,-0.69
2022-11-29T12:52:22.806Z,-0.69
2022-11-29T12:55:10.507Z,-0.67
2022-11-29T12:57:59.321Z,-0.66
2022-11-29T13:00:27.139Z,-0.65
2022-11-29T13:03:27.976Z,-0.64
2022-11-29T13:05:58.855Z,-0.63
2022-11-29T13:08:37.740Z,-0.62
2022-11-29T13:11:30.938Z,-0.61
2022-11-29T13:14:47.937Z,-0.63
2022-11-29T16:51:10.289Z,-1.29
2022-11-29T16:53:38.183Z,-1.11
2022-11-29T16:56:05.185Z,-1.09
2022-11-29T16:58:31.990Z,-1.07
2022-11-29T17:00:58.726Z,-1.05
2022-11-29T17:03:25.504Z,-1.04
2022-11-29T17:05:52.261Z,-1.02
2022-11-29T17:08:19.003Z,-1.02
2022-11-29T17:10:45.692Z,-1.06
2022-11-29T17:13:12.451Z,-1.02
2022-11-29T17:15:39.320Z,-1.02
2022-11-29T17:18:05.960Z,-1.01
2022-11-29T17:20:32.661Z,-0.99
2022-11-29T17:22:59.381Z,-0.99
2022-11-29T17:25:26.077Z,-0.99
2022-11-29T17:27:52.811Z,-0.99
2022-11-29T17:30:19.723Z,-0.99
2022-11-29T17:32:46.456Z,-0.99
2022-11-29T17:35:13.451Z,-0.97
2022-11-29T17:37:40.084Z,-0.97
2022-11-29T17:40:07.913Z,-0.96
2022-11-29T17:42:34.611Z,-0.96
2022-11-29T17:45:01.552Z,-0.97
2022-11-29T17:47:28.241Z,-0.95
2022-11-29T17:49:55.059Z,-0.93
2022-11-29T17:52:21.772Z,-0.91
2022-11-29T17:54:48.615Z,-0.90
2022-11-29T17:57:15.284Z,-0.89
2022-11-29T17:59:42.054Z,-0.88
2022-11-29T18:02:09.813Z,-0.86
2022-11-29T18:04:37.425Z,-0.84
2022-11-29T18:07:05.350Z,-0.84
2022-11-29T18:09:32.083Z,-0.84
2022-11-29T18:11:58.808Z,-0.82
2022-11-29T18:14:28.387Z,-0.81
2022-11-29T18:16:55.299Z,-0.80
2022-11-29T18:19:22.294Z,-0.79
2022-11-29T18:21:49.581Z,-0.78
2022-11-29T18:24:16.526Z,-0.78
2022-11-29T18:26:43.371Z,-0.77
2022-11-29T18:29:10.024Z,-0.77
2022-11-29T18:31:38.900Z,-0.78
2022-11-29T18:34:12.952Z,-0.79
2022-11-29T18:36:43.020Z,-0.79
2022-11-29T18:39:14.791Z,-0.80
2022-11-29T18:41:47.588Z,-0.80
2022-11-29T18:44:15.038Z,-0.80
2022-11-29T18:46:43.185Z,-0.81
2022-11-29T18:49:11.500Z,-0.90
2022-11-29T18:51:38.353Z,-0.89
2022-11-29T18:54:05.369Z,-0.92
2022-11-29T18:56:32.975Z,-0.93
2022-11-29T18:59:04.800Z,-0.94
2022-11-29T19:01:32.708Z,-0.94
2022-11-29T19:04:00.220Z,-0.95
2022-11-29T19:06:38.956Z,-0.95
2022-11-29T19:09:07.249Z,-0.95
2022-11-29T19:11:34.447Z,-0.96
2022-11-29T19:14:03.860Z,-0.97
2022-11-29T19:16:32.157Z,-0.98
2022-11-29T19:18:59.521Z,-0.99
2022-11-29T19:21:27.068Z,-1.01
2022-11-29T19:23:58.033Z,-1.04
2022-11-29T19:26:26.601Z,-1.06
2022-11-29T19:28:53.526Z,-1.12
2022-11-29T19:31:20.768Z,-1.10
2022-11-29T19:33:47.527Z,-1.11
2022-11-29T19:36:16.168Z,-1.12
2022-11-29T19:38:43.432Z,-1.11
2022-11-29T19:41:10.904Z,-1.09
2022-11-29T19:43:37.716Z,-1.09
2022-11-29T19:46:08.471Z,-1.08
2022-11-29T19:48:35.644Z,-1.06
2022-11-29T19:51:02.545Z,-1.06
2022-11-29T19:53:29.278Z,-1.05
2022-11-29T19:55:56.011Z,-1.04
2022-11-29T19:58:22.852Z,-1.04
2022-11-29T20:00:49.533Z,-1.05
2022-11-29T20:03:16.410Z,-1.05
2022-11-29T20:05:43.288Z,-1.05
2022-11-29T20:08:09.959Z,-1.08
2022-11-29T20:10:36.716Z,-1.07
2022-11-29T20:13:03.409Z,-1.07
2022-11-29T20:15:30.202Z,-1.07
2022-11-29T20:17:56.873Z,-1.08
2022-11-29T20:20:23.867Z,-1.12
2022-11-29T20:22:52.262Z,-1.08
2022-11-29T20:25:19.045Z,-1.05
2022-11-29T20:27:45.778Z,-1.07
2022-11-29T20:30:13.270Z,-1.01
2022-11-29T20:32:40.095Z,-1.02
2022-11-29T20:35:07.021Z,-1.04
2022-11-29T20:37:51.470Z,-1.07
2022-11-29T20:40:21.116Z,-1.09
2022-11-29T20:43:10.710Z,-1.11
2022-11-29T20:45:38.003Z,-1.12
2022-11-29T20:48:21.667Z,-1.18
2022-11-29T20:50:54.814Z,-1.19
2022-11-29T20:53:31.845Z,-1.18
2022-11-29T20:55:58.701Z,-1.18
2022-11-29T20:58:26.512Z,-1.17
2022-11-29T21:00:54.445Z,-1.17
2022-11-29T21:03:21.537Z,-1.18
2022-11-29T21:05:48.517Z,-1.19
2022-11-29T21:08:15.768Z,-1.18
2022-11-29T21:10:42.568Z,-1.21
2022-11-29T21:13:10.474Z,-1.19
2022-11-29T21:15:37.586Z,-1.20
2022-11-29T21:18:04.681Z,-1.21
2022-11-29T21:20:31.753Z,-1.23
2022-11-29T21:23:14.999Z,-1.23
2022-11-29T21:25:45.028Z,-1.24
2022-11-29T21:28:12.941Z,-1.25
2022-11-29T21:30:40.168Z,-1.26
2022-11-29T21:33:07.348Z,-1.27
2022-11-29T21:35:34.201Z,-1.29
2022-11-29T21:38:01.010Z,-1.30
2022-11-29T21:40:28.220Z,-1.28
2022-11-29T21:42:54.935Z,-1.27
2022-11-29T21:45:21.675Z,-1.26
2022-11-29T21:47:48.608Z,-1.26
2022-11-29T21:50:15.360Z,-1.27
2022-11-29T21:52:43.657Z,-1.29
2022-11-29T21:55:10.485Z,-1.30
2022-11-29T21:57:37.667Z,-1.31
2022-11-29T22:00:05.557Z,-1.33
2022-11-29T22:02:32.456Z,-1.33
2022-11-29T22:04:59.282Z,-1.31
2022-11-29T22:07:26.814Z,-1.30
2022-11-29T22:09:53.569Z,-1.28
2022-11-29T22:12:33.870Z,-1.27
2022-11-29T22:15:01.260Z,-1.28
2022-11-29T22:17:28.015Z,-1.28
2022-11-29T22:19:54.969Z,-1.29
2022-11-29T22:22:22.113Z,-1.30
2022-11-29T22:24:49.121Z,-1.30
2022-11-29T22:27:18.412Z,-1.31
2022-11-29T22:29:45.331Z,-1.32
2022-11-29T22:32:11.960Z,-1.29
2022-11-29T22:34:38.698Z,-1.27
2022-11-29T22:37:05.923Z,-1.27
2022-11-29T22:39:32.588Z,-1.25
2022-11-29T22:41:59.288Z,-1.23
2022-11-29T22:44:25.984Z,-1.22
2022-11-29T22:46:52.822Z,-1.20
2022-11-29T22:49:19.487Z,-1.19
2022-11-29T22:51:46.253Z,-1.17
2022-11-29T22:54:15.494Z,-1.18
2022-11-29T22:56:42.790Z,-1.18
2022-11-29T22:59:09.523Z,-1.18
2022-11-29T23:01:37.730Z,-1.17
2022-11-29T23:04:07.025Z,-1.16
2022-11-29T23:06:40.945Z,-1.16
2022-11-29T23:09:11.913Z,-1.16
2022-11-29T23:11:38.693Z,-1.16
2022-11-29T23:14:05.401Z,-1.16
2022-11-29T23:16:32.993Z,-1.15
2022-11-29T23:19:00.143Z,-1.15
2022-11-29T23:21:28.913Z,-1.17
2022-11-29T23:23:56.835Z,-1.17
2022-11-29T23:26:28.436Z,-1.18
2022-11-29T23:28:55.469Z,-1.19
2022-11-29T23:31:22.508Z,-1.19
2022-11-29T23:33:49.481Z,-1.18
2022-11-29T23:36:16.226Z,-1.18
2022-11-29T23:38:43.111Z,-1.17
2022-11-29T23:41:09.981Z,-1.19
2022-11-29T23:43:37.497Z,-1.20
2022-11-29T23:46:12.640Z,-1.21
2022-11-29T23:48:39.488Z,-1.22
2022-11-29T23:51:06.258Z,-1.22
2022-11-29T23:53:33.014Z,-1.20
2022-11-29T23:56:07.619Z,-1.18
2022-11-29T23:58:34.647Z,-1.18
